Missouri River (Missouri), Boonville (06909000)

StateMissouriLatestUnknown (83700 cfs)
RiverMissouri RiverRatingObservedEstimated
Updated2020-02-25 14:30 (1 hour ago)Flood - The river is flooding. Obstacles can be treacherous or deadly. The river should be avoided at this stage for casual trips and definitely for the inexperienced. Trips should be attempted only with protective gear and equipment.Flood(none)(none)
Discharge83700 cfs (median: 46600 cfs)High - The river is high and potentially dangerous, especially for the young and / or inexperienced. Normal stream obstacles are sometimes difficult to navigate. Extended distances can be attempted, but canoe travel may not be advisable.High(none)(none)
Height12.56 feetGood - Conditions are ideal for a canoe or kayak. Boats typically will drag on fewer than one-quarter of riffles, if at all, and portages are unnecessary or rare. Normal float lengths can be attempted without a problem.Good(none)(none)
TrendRising (rising over 24 hours)Low - River is low but can still be floated. Some riffles are okay but most come with significant dragging and might need a portage. Float lengths should be reduced to accommodate low flow, dragging, and portages.Low(none)(none)
USGSExternal icon USGS Site (External icon Google Maps)Poor - River is too low to float comfortably. Most or all riffles will drag or must be portaged and some obstacles (such as slick shelf rock) cause undue problems. Avoid the river at this stage for casual paddling trips.Poor(none)(none)

Trending Data

Plot Image

Trips for Missouri River (Missouri), Boonville (06909000)

DateStartEndDistanceConditionDischargeHeightFishingDetails

A total of 0 rows are displayed.

Condition Descriptions

Fishing Conditions

Fish Species

Notes

Classic Trip List

The classic River Trips application is still available for use. It is updated with the new system using a data retrofit. It is no longer maintained. The original River Trips application is no longer updated (as of 1 Dec 2016) but can be checked for errors or for the condition of the data before it was converted to the new system.

Gauge Data Table

ObservationHeightDischargeMaximum
Discharge
Minimum
Discharge
Mean
Discharge
P05P10P20P25P50
(Median)
P75P80P90P95
2020-02-25 14:30 12.56 83700 280000 (1985) 15800 (1967) 61900 23500 25700 32900 35200 46600 70000 82500 110000 193000
2020-02-25 13:30 12.49 83100 280000 (1985) 15800 (1967) 61900 23500 25700 32900 35200 46600 70000 82500 110000 193000
2020-02-25 12:30 12.39 82300 280000 (1985) 15800 (1967) 61900 23500 25700 32900 35200 46600 70000 82500 110000 193000
2020-02-25 11:30 12.37 82100 280000 (1985) 15800 (1967) 61900 23500 25700 32900 35200 46600 70000 82500 110000 193000
2020-02-25 10:30 12.31 81600 280000 (1985) 15800 (1967) 61900 23500 25700 32900 35200 46600 70000 82500 110000 193000
2020-02-25 09:30 12.27 81300 280000 (1985) 15800 (1967) 61900 23500 25700 32900 35200 46600 70000 82500 110000 193000
2020-02-25 08:30 12.20 80700 280000 (1985) 15800 (1967) 61900 23500 25700 32900 35200 46600 70000 82500 110000 193000
2020-02-25 07:30 12.11 80000 280000 (1985) 15800 (1967) 61900 23500 25700 32900 35200 46600 70000 82500 110000 193000
2020-02-25 06:30 12.08 79700 280000 (1985) 15800 (1967) 61900 23500 25700 32900 35200 46600 70000 82500 110000 193000
2020-02-25 05:30 12.07 79600 280000 (1985) 15800 (1967) 61900 23500 25700 32900 35200 46600 70000 82500 110000 193000
2020-02-25 04:30 12.03 79300 280000 (1985) 15800 (1967) 61900 23500 25700 32900 35200 46600 70000 82500 110000 193000
2020-02-25 03:30 12.01 79100 280000 (1985) 15800 (1967) 61900 23500 25700 32900 35200 46600 70000 82500 110000 193000
2020-02-25 02:30 12.00 79100 280000 (1985) 15800 (1967) 61900 23500 25700 32900 35200 46600 70000 82500 110000 193000
2020-02-25 01:30 11.97 78800 280000 (1985) 15800 (1967) 61900 23500 25700 32900 35200 46600 70000 82500 110000 193000
2020-02-25 00:30 11.93 78500 280000 (1985) 15800 (1967) 61900 23500 25700 32900 35200 46600 70000 82500 110000 193000
2020-02-24 23:30 11.87 78000 284000 (1985) 16000 (1967) 61000 23100 25500 29000 34600 45700 69100 74600 109000 209000
2020-02-24 22:30 11.88 78100 284000 (1985) 16000 (1967) 61000 23100 25500 29000 34600 45700 69100 74600 109000 209000
2020-02-24 21:30 11.88 78100 284000 (1985) 16000 (1967) 61000 23100 25500 29000 34600 45700 69100 74600 109000 209000
2020-02-24 20:30 11.89 78200 284000 (1985) 16000 (1967) 61000 23100 25500 29000 34600 45700 69100 74600 109000 209000
2020-02-24 19:30 11.86 77900 284000 (1985) 16000 (1967) 61000 23100 25500 29000 34600 45700 69100 74600 109000 209000
2020-02-24 18:30 11.81 77500 284000 (1985) 16000 (1967) 61000 23100 25500 29000 34600 45700 69100 74600 109000 209000
2020-02-24 17:30 11.85 77800 284000 (1985) 16000 (1967) 61000 23100 25500 29000 34600 45700 69100 74600 109000 209000
2020-02-24 16:30 11.84 77800 284000 (1985) 16000 (1967) 61000 23100 25500 29000 34600 45700 69100 74600 109000 209000
2020-02-24 15:30 11.78 77300 284000 (1985) 16000 (1967) 61000 23100 25500 29000 34600 45700 69100 74600 109000 209000
2020-02-24 14:30 11.84 77800 284000 (1985) 16000 (1967) 61000 23100 25500 29000 34600 45700 69100 74600 109000 209000
2020-02-24 13:30 11.85 77800 284000 (1985) 16000 (1967) 61000 23100 25500 29000 34600 45700 69100 74600 109000 209000
2020-02-24 12:30 11.82 77600 284000 (1985) 16000 (1967) 61000 23100 25500 29000 34600 45700 69100 74600 109000 209000
2020-02-24 11:30 11.81 77500 284000 (1985) 16000 (1967) 61000 23100 25500 29000 34600 45700 69100 74600 109000 209000
2020-02-24 10:30 11.76 77100 284000 (1985) 16000 (1967) 61000 23100 25500 29000 34600 45700 69100 74600 109000 209000
2020-02-24 09:30 11.77 77200 284000 (1985) 16000 (1967) 61000 23100 25500 29000 34600 45700 69100 74600 109000 209000
2020-02-24 08:30 11.85 77800 284000 (1985) 16000 (1967) 61000 23100 25500 29000 34600 45700 69100 74600 109000 209000
2020-02-24 07:30 11.83 77700 284000 (1985) 16000 (1967) 61000 23100 25500 29000 34600 45700 69100 74600 109000 209000
2020-02-24 06:30 11.93 78500 284000 (1985) 16000 (1967) 61000 23100 25500 29000 34600 45700 69100 74600 109000 209000
2020-02-24 05:30 11.95 78700 284000 (1985) 16000 (1967) 61000 23100 25500 29000 34600 45700 69100 74600 109000 209000
2020-02-24 04:30 11.97 78800 284000 (1985) 16000 (1967) 61000 23100 25500 29000 34600 45700 69100 74600 109000 209000
2020-02-24 03:30 12.09 79800 284000 (1985) 16000 (1967) 61000 23100 25500 29000 34600 45700 69100 74600 109000 209000
2020-02-24 02:30 12.08 79700 284000 (1985) 16000 (1967) 61000 23100 25500 29000 34600 45700 69100 74600 109000 209000
2020-02-24 01:30 12.13 80100 284000 (1985) 16000 (1967) 61000 23100 25500 29000 34600 45700 69100 74600 109000 209000
2020-02-24 00:30 12.17 80400 284000 (1985) 16000 (1967) 61000 23100 25500 29000 34600 45700 69100 74600 109000 209000
2020-02-23 23:30 12.20 80700 249000 (1997) 15400 (1958) 60000 18300 26300 28800 32800 45900 64500 71400 120000 212000
2020-02-23 22:30 12.21 80800 249000 (1997) 15400 (1958) 60000 18300 26300 28800 32800 45900 64500 71400 120000 212000
2020-02-23 21:30 12.26 81200 249000 (1997) 15400 (1958) 60000 18300 26300 28800 32800 45900 64500 71400 120000 212000
2020-02-23 20:30 12.29 81400 249000 (1997) 15400 (1958) 60000 18300 26300 28800 32800 45900 64500 71400 120000 212000
2020-02-23 19:30 12.33 81800 249000 (1997) 15400 (1958) 60000 18300 26300 28800 32800 45900 64500 71400 120000 212000
2020-02-23 18:30 12.37 82100 249000 (1997) 15400 (1958) 60000 18300 26300 28800 32800 45900 64500 71400 120000 212000
2020-02-23 17:30 12.40 82400 249000 (1997) 15400 (1958) 60000 18300 26300 28800 32800 45900 64500 71400 120000 212000
2020-02-23 16:30 12.42 82500 249000 (1997) 15400 (1958) 60000 18300 26300 28800 32800 45900 64500 71400 120000 212000
2020-02-23 15:30 12.45 82800 249000 (1997) 15400 (1958) 60000 18300 26300 28800 32800 45900 64500 71400 120000 212000
2020-02-23 14:30 12.47 82900 249000 (1997) 15400 (1958) 60000 18300 26300 28800 32800 45900 64500 71400 120000 212000
2020-02-23 13:30 12.51 83300 249000 (1997) 15400 (1958) 60000 18300 26300 28800 32800 45900 64500 71400 120000 212000
2020-02-23 12:30 12.54 83500 249000 (1997) 15400 (1958) 60000 18300 26300 28800 32800 45900 64500 71400 120000 212000
2020-02-23 11:30 12.57 83800 249000 (1997) 15400 (1958) 60000 18300 26300 28800 32800 45900 64500 71400 120000 212000
2020-02-23 10:30 12.58 83900 249000 (1997) 15400 (1958) 60000 18300 26300 28800 32800 45900 64500 71400 120000 212000
2020-02-23 09:30 12.56 83700 249000 (1997) 15400 (1958) 60000 18300 26300 28800 32800 45900 64500 71400 120000 212000
2020-02-23 08:30 12.62 84200 249000 (1997) 15400 (1958) 60000 18300 26300 28800 32800 45900 64500 71400 120000 212000
2020-02-23 07:30 12.62 84200 249000 (1997) 15400 (1958) 60000 18300 26300 28800 32800 45900 64500 71400 120000 212000
2020-02-23 06:30 12.64 84400 249000 (1997) 15400 (1958) 60000 18300 26300 28800 32800 45900 64500 71400 120000 212000
2020-02-23 05:30 12.68 84700 249000 (1997) 15400 (1958) 60000 18300 26300 28800 32800 45900 64500 71400 120000 212000
2020-02-23 04:30 12.70 84900 249000 (1997) 15400 (1958) 60000 18300 26300 28800 32800 45900 64500 71400 120000 212000
2020-02-23 03:30 12.72 85100 249000 (1997) 15400 (1958) 60000 18300 26300 28800 32800 45900 64500 71400 120000 212000
2020-02-23 02:30 12.74 85200 249000 (1997) 15400 (1958) 60000 18300 26300 28800 32800 45900 64500 71400 120000 212000
2020-02-23 01:30 12.77 85500 249000 (1997) 15400 (1958) 60000 18300 26300 28800 32800 45900 64500 71400 120000 212000
2020-02-23 00:30 12.78 85600 249000 (1997) 15400 (1958) 60000 18300 26300 28800 32800 45900 64500 71400 120000 212000
2020-02-22 23:30 12.79 85700 230000 (1997) 14000 (1958) 57700 19300 25500 28800 30700 45900 66100 72000 123000 151000
2020-02-22 22:30 12.80 85800 230000 (1997) 14000 (1958) 57700 19300 25500 28800 30700 45900 66100 72000 123000 151000
2020-02-22 21:30 12.82 85900 230000 (1997) 14000 (1958) 57700 19300 25500 28800 30700 45900 66100 72000 123000 151000
2020-02-22 20:30 12.83 86000 230000 (1997) 14000 (1958) 57700 19300 25500 28800 30700 45900 66100 72000 123000 151000
2020-02-22 19:30 12.84 86100 230000 (1997) 14000 (1958) 57700 19300 25500 28800 30700 45900 66100 72000 123000 151000
2020-02-22 18:30 12.83 86000 230000 (1997) 14000 (1958) 57700 19300 25500 28800 30700 45900 66100 72000 123000 151000
2020-02-22 17:30 12.85 86200 230000 (1997) 14000 (1958) 57700 19300 25500 28800 30700 45900 66100 72000 123000 151000
2020-02-22 16:30 12.84 86100 230000 (1997) 14000 (1958) 57700 19300 25500 28800 30700 45900 66100 72000 123000 151000
2020-02-22 15:30 12.79 85700 230000 (1997) 14000 (1958) 57700 19300 25500 28800 30700 45900 66100 72000 123000 151000
2020-02-22 14:30 12.86 86300 230000 (1997) 14000 (1958) 57700 19300 25500 28800 30700 45900 66100 72000 123000 151000
2020-02-22 13:30 12.87 86400 230000 (1997) 14000 (1958) 57700 19300 25500 28800 30700 45900 66100 72000 123000 151000
2020-02-22 12:30 12.81 85900 230000 (1997) 14000 (1958) 57700 19300 25500 28800 30700 45900 66100 72000 123000 151000
2020-02-22 11:30 12.86 86300 230000 (1997) 14000 (1958) 57700 19300 25500 28800 30700 45900 66100 72000 123000 151000
2020-02-22 10:30 12.88 86500 230000 (1997) 14000 (1958) 57700 19300 25500 28800 30700 45900 66100 72000 123000 151000
2020-02-22 09:30 12.95 87100 230000 (1997) 14000 (1958) 57700 19300 25500 28800 30700 45900 66100 72000 123000 151000
2020-02-22 08:30 12.96 87200 230000 (1997) 14000 (1958) 57700 19300 25500 28800 30700 45900 66100 72000 123000 151000
2020-02-22 07:30 12.98 87300 230000 (1997) 14000 (1958) 57700 19300 25500 28800 30700 45900 66100 72000 123000 151000
2020-02-22 06:30 12.99 87400 230000 (1997) 14000 (1958) 57700 19300 25500 28800 30700 45900 66100 72000 123000 151000
2020-02-22 05:30 12.98 87300 230000 (1997) 14000 (1958) 57700 19300 25500 28800 30700 45900 66100 72000 123000 151000
2020-02-22 04:30 12.97 87200 230000 (1997) 14000 (1958) 57700 19300 25500 28800 30700 45900 66100 72000 123000 151000
2020-02-22 03:30 12.97 87200 230000 (1997) 14000 (1958) 57700 19300 25500 28800 30700 45900 66100 72000 123000 151000
2020-02-22 02:30 12.99 87400 230000 (1997) 14000 (1958) 57700 19300 25500 28800 30700 45900 66100 72000 123000 151000
2020-02-22 01:30 12.98 87300 230000 (1997) 14000 (1958) 57700 19300 25500 28800 30700 45900 66100 72000 123000 151000
2020-02-22 00:30 12.98 87300 230000 (1997) 14000 (1958) 57700 19300 25500 28800 30700 45900 66100 72000 123000 151000
2020-02-21 23:30 13.00 87500 203000 (1982) 12600 (1958) 54500 20400 26400 30300 31500 44700 61500 70200 98700 140000
2020-02-21 22:30 13.00 87500 203000 (1982) 12600 (1958) 54500 20400 26400 30300 31500 44700 61500 70200 98700 140000
2020-02-21 21:30 13.01 87600 203000 (1982) 12600 (1958) 54500 20400 26400 30300 31500 44700 61500 70200 98700 140000
2020-02-21 20:30 12.99 87400 203000 (1982) 12600 (1958) 54500 20400 26400 30300 31500 44700 61500 70200 98700 140000
2020-02-21 19:30 13.00 87500 203000 (1982) 12600 (1958) 54500 20400 26400 30300 31500 44700 61500 70200 98700 140000
2020-02-21 18:30 12.99 87400 203000 (1982) 12600 (1958) 54500 20400 26400 30300 31500 44700 61500 70200 98700 140000
2020-02-21 17:30 12.98 87300 203000 (1982) 12600 (1958) 54500 20400 26400 30300 31500 44700 61500 70200 98700 140000
2020-02-21 16:30 12.97 87200 203000 (1982) 12600 (1958) 54500 20400 26400 30300 31500 44700 61500 70200 98700 140000
2020-02-21 15:30 12.89 86500 203000 (1982) 12600 (1958) 54500 20400 26400 30300 31500 44700 61500 70200 98700 140000
2020-02-21 14:30 12.97 87200 203000 (1982) 12600 (1958) 54500 20400 26400 30300 31500 44700 61500 70200 98700 140000
2020-02-21 13:30 12.89 86500 203000 (1982) 12600 (1958) 54500 20400 26400 30300 31500 44700 61500 70200 98700 140000
2020-02-21 12:30 12.93 86900 203000 (1982) 12600 (1958) 54500 20400 26400 30300 31500 44700 61500 70200 98700 140000
2020-02-21 11:30 13.00 87500 203000 (1982) 12600 (1958) 54500 20400 26400 30300 31500 44700 61500 70200 98700 140000
2020-02-21 10:30 12.98 87300 203000 (1982) 12600 (1958) 54500 20400 26400 30300 31500 44700 61500 70200 98700 140000
2020-02-21 09:30 12.98 87300 203000 (1982) 12600 (1958) 54500 20400 26400 30300 31500 44700 61500 70200 98700 140000
2020-02-21 08:30 13.01 87600 203000 (1982) 12600 (1958) 54500 20400 26400 30300 31500 44700 61500 70200 98700 140000
2020-02-21 07:30 12.99 87400 203000 (1982) 12600 (1958) 54500 20400 26400 30300 31500 44700 61500 70200 98700 140000
2020-02-21 06:30 12.98 87300 203000 (1982) 12600 (1958) 54500 20400 26400 30300 31500 44700 61500 70200 98700 140000
2020-02-21 05:30 12.99 87400 203000 (1982) 12600 (1958) 54500 20400 26400 30300 31500 44700 61500 70200 98700 140000
2020-02-21 04:30 12.98 87300 203000 (1982) 12600 (1958) 54500 20400 26400 30300 31500 44700 61500 70200 98700 140000
2020-02-21 03:30 12.98 87300 203000 (1982) 12600 (1958) 54500 20400 26400 30300 31500 44700 61500 70200 98700 140000
2020-02-21 02:30 12.96 87200 203000 (1982) 12600 (1958) 54500 20400 26400 30300 31500 44700 61500 70200 98700 140000
2020-02-21 01:30 12.94 87000 203000 (1982) 12600 (1958) 54500 20400 26400 30300 31500 44700 61500 70200 98700 140000
2020-02-21 00:30 12.87 86400 203000 (1982) 12600 (1958) 54500 20400 26400 30300 31500 44700 61500 70200 98700 140000
2020-02-20 23:30 12.93 86900 153000 (1982) 11300 (1958) 51100 21900 24400 29200 31700 42900 62400 66200 98500 114000
2020-02-20 22:30 12.92 86800 153000 (1982) 11300 (1958) 51100 21900 24400 29200 31700 42900 62400 66200 98500 114000
2020-02-20 21:30 12.91 86700 153000 (1982) 11300 (1958) 51100 21900 24400 29200 31700 42900 62400 66200 98500 114000
2020-02-20 20:30 12.88 86500 153000 (1982) 11300 (1958) 51100 21900 24400 29200 31700 42900 62400 66200 98500 114000
2020-02-20 19:30 12.88 86500 153000 (1982) 11300 (1958) 51100 21900 24400 29200 31700 42900 62400 66200 98500 114000
2020-02-20 18:30 12.86 86300 153000 (1982) 11300 (1958) 51100 21900 24400 29200 31700 42900 62400 66200 98500 114000
2020-02-20 17:30 12.80 85800 153000 (1982) 11300 (1958) 51100 21900 24400 29200 31700 42900 62400 66200 98500 114000
2020-02-20 16:30 12.80 85800 153000 (1982) 11300 (1958) 51100 21900 24400 29200 31700 42900 62400 66200 98500 114000
2020-02-20 15:30 12.78 85600 153000 (1982) 11300 (1958) 51100 21900 24400 29200 31700 42900 62400 66200 98500 114000
2020-02-20 14:30 12.78 85600 153000 (1982) 11300 (1958) 51100 21900 24400 29200 31700 42900 62400 66200 98500 114000
2020-02-20 13:30 12.63 84300 153000 (1982) 11300 (1958) 51100 21900 24400 29200 31700 42900 62400 66200 98500 114000
2020-02-20 12:30 12.68 84700 153000 (1982) 11300 (1958) 51100 21900 24400 29200 31700 42900 62400 66200 98500 114000
2020-02-20 11:30 12.66 84600 153000 (1982) 11300 (1958) 51100 21900 24400 29200 31700 42900 62400 66200 98500 114000
2020-02-20 10:30 12.66 84600 153000 (1982) 11300 (1958) 51100 21900 24400 29200 31700 42900 62400 66200 98500 114000
2020-02-20 09:30 12.60 84000 153000 (1982) 11300 (1958) 51100 21900 24400 29200 31700 42900 62400 66200 98500 114000
2020-02-20 08:30 12.52 83400 153000 (1982) 11300 (1958) 51100 21900 24400 29200 31700 42900 62400 66200 98500 114000
2020-02-20 07:30 12.50 83200 153000 (1982) 11300 (1958) 51100 21900 24400 29200 31700 42900 62400 66200 98500 114000
2020-02-20 06:30 12.47 82900 153000 (1982) 11300 (1958) 51100 21900 24400 29200 31700 42900 62400 66200 98500 114000
2020-02-20 05:30 12.46 82900 153000 (1982) 11300 (1958) 51100 21900 24400 29200 31700 42900 62400 66200 98500 114000
2020-02-20 04:30 12.40 82400 153000 (1982) 11300 (1958) 51100 21900 24400 29200 31700 42900 62400 66200 98500 114000
2020-02-20 03:30 12.41 82400 153000 (1982) 11300 (1958) 51100 21900 24400 29200 31700 42900 62400 66200 98500 114000
2020-02-20 02:30 12.32 81700 153000 (1982) 11300 (1958) 51100 21900 24400 29200 31700 42900 62400 66200 98500 114000
2020-02-20 01:30 12.28 81400 153000 (1982) 11300 (1958) 51100 21900 24400 29200 31700 42900 62400 66200 98500 114000
2020-02-20 00:30 12.24 81000 153000 (1982) 11300 (1958) 51100 21900 24400 29200 31700 42900 62400 66200 98500 114000
2020-02-19 23:30 12.21 80800 136000 (2011) 11100 (1958) 49100 20400 24700 28400 29400 43100 59700 64400 97500 111000
2020-02-19 22:30 12.12 80000 136000 (2011) 11100 (1958) 49100 20400 24700 28400 29400 43100 59700 64400 97500 111000
2020-02-19 21:30 12.10 79900 136000 (2011) 11100 (1958) 49100 20400 24700 28400 29400 43100 59700 64400 97500 111000
2020-02-19 20:30 12.16 80400 136000 (2011) 11100 (1958) 49100 20400 24700 28400 29400 43100 59700 64400 97500 111000
2020-02-19 19:30 12.13 80100 136000 (2011) 11100 (1958) 49100 20400 24700 28400 29400 43100 59700 64400 97500 111000
2020-02-19 18:30 12.02 79200 136000 (2011) 11100 (1958) 49100 20400 24700 28400 29400 43100 59700 64400 97500 111000
2020-02-19 17:30 11.95 78700 136000 (2011) 11100 (1958) 49100 20400 24700 28400 29400 43100 59700 64400 97500 111000
2020-02-19 16:30 11.91 78300 136000 (2011) 11100 (1958) 49100 20400 24700 28400 29400 43100 59700 64400 97500 111000
2020-02-19 15:30 11.90 78200 136000 (2011) 11100 (1958) 49100 20400 24700 28400 29400 43100 59700 64400 97500 111000
2020-02-19 14:30 11.95 78700 136000 (2011) 11100 (1958) 49100 20400 24700 28400 29400 43100 59700 64400 97500 111000
2020-02-19 13:30 11.94 78600 136000 (2011) 11100 (1958) 49100 20400 24700 28400 29400 43100 59700 64400 97500 111000
2020-02-19 12:30 11.81 77500 136000 (2011) 11100 (1958) 49100 20400 24700 28400 29400 43100 59700 64400 97500 111000
2020-02-19 11:30 11.83 77700 136000 (2011) 11100 (1958) 49100 20400 24700 28400 29400 43100 59700 64400 97500 111000
2020-02-19 10:30 11.77 77200 136000 (2011) 11100 (1958) 49100 20400 24700 28400 29400 43100 59700 64400 97500 111000
2020-02-19 09:30 11.79 77400 136000 (2011) 11100 (1958) 49100 20400 24700 28400 29400 43100 59700 64400 97500 111000
2020-02-19 08:30 11.74 77000 136000 (2011) 11100 (1958) 49100 20400 24700 28400 29400 43100 59700 64400 97500 111000
2020-02-19 07:30 11.73 76900 136000 (2011) 11100 (1958) 49100 20400 24700 28400 29400 43100 59700 64400 97500 111000
2020-02-19 06:30 11.75 77000 136000 (2011) 11100 (1958) 49100 20400 24700 28400 29400 43100 59700 64400 97500 111000
2020-02-19 05:30 11.79 77400 136000 (2011) 11100 (1958) 49100 20400 24700 28400 29400 43100 59700 64400 97500 111000
2020-02-19 04:30 11.76 77100 136000 (2011) 11100 (1958) 49100 20400 24700 28400 29400 43100 59700 64400 97500 111000
2020-02-19 03:30 11.69 76600 136000 (2011) 11100 (1958) 49100 20400 24700 28400 29400 43100 59700 64400 97500 111000
2020-02-19 02:30 11.71 76700 136000 (2011) 11100 (1958) 49100 20400 24700 28400 29400 43100 59700 64400 97500 111000
2020-02-19 01:30 11.70 76600 136000 (2011) 11100 (1958) 49100 20400 24700 28400 29400 43100 59700 64400 97500 111000
2020-02-19 00:30 11.69 76600 136000 (2011) 11100 (1958) 49100 20400 24700 28400 29400 43100 59700 64400 97500 111000
2020-02-18 23:30 11.66 76300 129000 (2011) 11800 (1958) 47800 19100 24400 27700 29700 40300 54200 64400 89400 121000
2020-02-18 22:30 11.64 76200 129000 (2011) 11800 (1958) 47800 19100 24400 27700 29700 40300 54200 64400 89400 121000
2020-02-18 21:30 11.63 76100 129000 (2011) 11800 (1958) 47800 19100 24400 27700 29700 40300 54200 64400 89400 121000
2020-02-18 20:30 11.61 75900 129000 (2011) 11800 (1958) 47800 19100 24400 27700 29700 40300 54200 64400 89400 121000
2020-02-18 19:30 11.61 75900 129000 (2011) 11800 (1958) 47800 19100 24400 27700 29700 40300 54200 64400 89400 121000
2020-02-18 18:30 11.60 75900 129000 (2011) 11800 (1958) 47800 19100 24400 27700 29700 40300 54200 64400 89400 121000
2020-02-18 17:30 11.60 75900 129000 (2011) 11800 (1958) 47800 19100 24400 27700 29700 40300 54200 64400 89400 121000
2020-02-18 16:30 11.59 75800 129000 (2011) 11800 (1958) 47800 19100 24400 27700 29700 40300 54200 64400 89400 121000
2020-02-18 15:30 11.52 75200 129000 (2011) 11800 (1958) 47800 19100 24400 27700 29700 40300 54200 64400 89400 121000
2020-02-18 14:30 11.58 75700 129000 (2011) 11800 (1958) 47800 19100 24400 27700 29700 40300 54200 64400 89400 121000
2020-02-18 13:30 11.59 75800 129000 (2011) 11800 (1958) 47800 19100 24400 27700 29700 40300 54200 64400 89400 121000
2020-02-18 12:30 11.57 75600 129000 (2011) 11800 (1958) 47800 19100 24400 27700 29700 40300 54200 64400 89400 121000
2020-02-18 11:30 11.50 75100 129000 (2011) 11800 (1958) 47800 19100 24400 27700 29700 40300 54200 64400 89400 121000
2020-02-18 10:30 11.54 75400 129000 (2011) 11800 (1958) 47800 19100 24400 27700 29700 40300 54200 64400 89400 121000
2020-02-18 09:30 11.53 75300 129000 (2011) 11800 (1958) 47800 19100 24400 27700 29700 40300 54200 64400 89400 121000
2020-02-18 08:30 11.52 75200 129000 (2011) 11800 (1958) 47800 19100 24400 27700 29700 40300 54200 64400 89400 121000
2020-02-18 07:30 11.55 75500 129000 (2011) 11800 (1958) 47800 19100 24400 27700 29700 40300 54200 64400 89400 121000
2020-02-18 06:30 11.52 75200 129000 (2011) 11800 (1958) 47800 19100 24400 27700 29700 40300 54200 64400 89400 121000
2020-02-18 05:30 11.52 75200 129000 (2011) 11800 (1958) 47800 19100 24400 27700 29700 40300 54200 64400 89400 121000
2020-02-18 04:30 11.52 75200 129000 (2011) 11800 (1958) 47800 19100 24400 27700 29700 40300 54200 64400 89400 121000
2020-02-18 03:30 11.49 75000 129000 (2011) 11800 (1958) 47800 19100 24400 27700 29700 40300 54200 64400 89400 121000
2020-02-18 02:30 11.50 75100 129000 (2011) 11800 (1958) 47800 19100 24400 27700 29700 40300 54200 64400 89400 121000
2020-02-18 01:30 11.49 75000 129000 (2011) 11800 (1958) 47800 19100 24400 27700 29700 40300 54200 64400 89400 121000
2020-02-18 00:30 11.50 75100 129000 (2011) 11800 (1958) 47800 19100 24400 27700 29700 40300 54200 64400 89400 121000

A total of 183 rows are displayed for years 1958 through 2019.